logo
Rechercher aéroport 
image banner adimage banner adimage banner ad
image banner ad

62CA - Bank Of America Data Center

Situé à Los Angeles, United States

ICAO - 62CA, IATA -

Données fournies par Airmate  

Information générale

Coordonnées: N34°3'41" W118°15'6"
Élévation : 440 feet MSL.
Variation magnétique : 14° East
Voir autres Aéroports à California

Données opérationnelles

Special qualification required
Heure actuelle UTC:
Heure actuelle locale:
METAR: KHHR 011753Z VRB04KT 10SM BKN026 22/13 A2990 RMK AO2 SLP123 T02220133 10222 20194 50006 $
Voir NOTAMs / SUP AIP / TFR affectant cet aéroport [VIEW]
Fréquences de communication: [VIEW]

Pistes:

Coordonnées de l'aéroport

Adresse: Los Angeles United States

Vue satellite de 62CA